createdAt,value
2018-05-02T00:00:36.185Z,6.20
2018-05-02T00:03:04.299Z,6.20
2018-05-02T00:05:33.523Z,6.10
2018-05-02T00:08:01.626Z,6.10
2018-05-02T00:10:29.770Z,6.20
2018-05-02T00:12:57.866Z,6.20
2018-05-02T00:15:25.995Z,6.10
2018-05-02T00:17:54.848Z,6.10
2018-05-02T00:20:22.990Z,6.10
2018-05-02T00:22:51.094Z,6.10
2018-05-02T00:25:19.200Z,6.20
2018-05-02T00:27:47.317Z,5.90
2018-05-02T00:30:15.418Z,5.90
2018-05-02T00:32:43.546Z,5.90
2018-05-02T00:35:11.644Z,5.90
2018-05-02T00:37:39.774Z,5.80
2018-05-02T00:40:07.889Z,5.90
2018-05-02T00:42:36.014Z,5.80
2018-05-02T00:45:06.730Z,5.80
2018-05-02T00:47:34.854Z,5.70
2018-05-02T00:50:02.957Z,5.80
2018-05-02T00:52:31.091Z,5.80
2018-05-02T00:54:59.563Z,5.80
2018-05-02T00:57:28.450Z,5.90
2018-05-02T00:59:57.409Z,5.90
2018-05-02T01:02:25.540Z,5.90
2018-05-02T01:04:53.642Z,5.80
2018-05-02T01:07:21.780Z,5.70
2018-05-02T01:09:49.873Z,5.80
2018-05-02T01:12:18.073Z,5.80
2018-05-02T01:14:47.381Z,5.70
2018-05-02T01:17:15.503Z,5.70
2018-05-02T01:19:43.601Z,5.60
2018-05-02T01:22:11.722Z,5.70
2018-05-02T01:24:40.594Z,5.50
2018-05-02T01:27:08.733Z,5.50
2018-05-02T01:29:36.836Z,5.50
2018-05-02T01:32:06.073Z,5.50
2018-05-02T01:34:34.177Z,5.50
2018-05-02T01:37:02.293Z,5.50
2018-05-02T01:39:31.169Z,5.30
2018-05-02T01:41:59.305Z,5.30
2018-05-02T01:44:27.411Z,5.30
2018-05-02T01:46:55.529Z,5.40
2018-05-02T01:49:23.653Z,5.40
2018-05-02T01:51:51.776Z,5.40
2018-05-02T01:54:19.878Z,5.40
2018-05-02T01:56:48.006Z,5.50
2018-05-02T01:59:17.325Z,5.50
2018-05-02T02:01:45.444Z,5.40
2018-05-02T02:04:13.546Z,5.40
2018-05-02T02:06:42.437Z,5.30
2018-05-02T02:09:11.319Z,5.30
2018-05-02T02:11:39.444Z,5.30
2018-05-02T02:14:08.403Z,5.30
2018-05-02T02:16:37.288Z,5.40
2018-05-02T02:19:05.759Z,5.40
2018-05-02T02:21:33.888Z,5.20
2018-05-02T02:24:01.997Z,5.10
2018-05-02T02:26:30.118Z,5.20
2018-05-02T02:28:58.226Z,5.10
2018-05-02T02:31:26.357Z,5.00
2018-05-02T02:33:55.056Z,5.00
2018-05-02T02:36:23.107Z,5.00
2018-05-02T02:38:52.401Z,5.10
2018-05-02T02:41:21.298Z,5.20
2018-05-02T02:43:49.410Z,5.20
2018-05-02T02:46:17.537Z,5.10
2018-05-02T02:48:46.438Z,5.10
2018-05-02T02:51:14.668Z,5.00
2018-05-02T02:53:42.775Z,4.90
2018-05-02T02:56:10.928Z,5.00
2018-05-02T02:58:39.042Z,5.00
2018-05-02T03:01:07.148Z,5.00
2018-05-02T03:03:35.272Z,5.00
2018-05-02T03:06:04.145Z,4.90
2018-05-02T03:08:32.262Z,4.90
2018-05-02T03:11:00.374Z,4.90
2018-05-02T03:13:28.494Z,5.00
2018-05-02T03:15:56.601Z,5.10
2018-05-02T03:18:25.878Z,5.00
2018-05-02T03:20:53.976Z,4.90
2018-05-02T03:23:22.105Z,4.90
2018-05-02T03:25:50.205Z,4.80
2018-05-02T03:28:18.350Z,4.80
2018-05-02T03:30:47.842Z,4.90
2018-05-02T03:33:16.741Z,4.90
2018-05-02T03:35:44.864Z,4.90
2018-05-02T03:38:14.482Z,5.00
2018-05-02T03:40:42.594Z,4.90
2018-05-02T03:43:11.474Z,4.90
2018-05-02T03:45:40.337Z,4.90
2018-05-02T03:48:08.467Z,4.90
2018-05-02T03:50:37.070Z,4.90
2018-05-02T03:53:05.763Z,4.90
2018-05-02T03:55:33.826Z,4.90
2018-05-02T03:58:01.946Z,4.90
2018-05-02T04:00:42.790Z,4.90
2018-05-02T04:03:23.056Z,4.90
2018-05-02T04:06:05.566Z,4.90
2018-05-02T04:08:34.080Z,5.00
2018-05-02T04:11:02.201Z,4.80
2018-05-02T04:13:30.342Z,4.90
2018-05-02T04:15:58.450Z,4.90
2018-05-02T04:18:26.577Z,5.00
2018-05-02T04:20:54.680Z,5.00
2018-05-02T04:23:22.808Z,5.20
2018-05-02T04:25:51.688Z,5.30
2018-05-02T04:28:23.643Z,5.30
2018-05-02T04:30:51.811Z,5.40
2018-05-02T04:33:20.846Z,5.40
2018-05-02T04:35:49.715Z,5.30
2018-05-02T04:38:17.835Z,5.30
2018-05-02T04:40:45.952Z,5.40
2018-05-02T04:43:14.093Z,5.50
2018-05-02T04:45:44.661Z,5.80
2018-05-02T04:48:12.789Z,5.70
2018-05-02T04:50:40.897Z,5.90
2018-05-02T04:53:09.025Z,6.00
2018-05-02T04:55:37.135Z,6.10
2018-05-02T04:58:06.083Z,6.00
2018-05-02T05:00:34.521Z,6.20
2018-05-02T05:03:04.367Z,6.50
2018-05-02T05:05:32.469Z,6.60
2018-05-02T05:08:00.700Z,6.80
2018-05-02T05:10:30.462Z,6.80
2018-05-02T05:12:58.585Z,6.90
2018-05-02T05:15:27.456Z,7.10
2018-05-02T05:17:55.615Z,7.10
2018-05-02T05:20:23.719Z,7.30
2018-05-02T05:22:52.610Z,7.70
2018-05-02T05:25:21.485Z,7.90
2018-05-02T05:27:49.612Z,7.80
2018-05-02T05:30:17.743Z,8.00
2018-05-02T05:32:46.662Z,8.30
2018-05-02T05:35:14.794Z,8.30
2018-05-02T05:37:43.506Z,8.50
2018-05-02T05:40:12.373Z,8.90
2018-05-02T05:42:40.490Z,8.90
2018-05-02T05:45:08.618Z,9.00
2018-05-02T05:47:36.721Z,9.30
2018-05-02T05:50:07.356Z,9.50
2018-05-02T05:52:35.465Z,9.60
2018-05-02T05:55:05.923Z,9.80
2018-05-02T05:57:36.772Z,9.70
2018-05-02T06:00:05.689Z,9.90
2018-05-02T06:02:34.041Z,9.90
2018-05-02T06:05:02.985Z,10.10
2018-05-02T06:07:31.067Z,10.10
2018-05-02T06:10:00.730Z,10.70
2018-05-02T06:12:29.600Z,11.00
2018-05-02T06:14:58.600Z,11.00
2018-05-02T06:17:26.719Z,11.10
2018-05-02T06:19:55.373Z,11.40
2018-05-02T06:22:24.250Z,11.80
2018-05-02T06:24:58.916Z,11.80
2018-05-02T06:27:27.794Z,12.00
2018-05-02T06:29:55.946Z,12.00
2018-05-02T06:32:24.833Z,12.50
2018-05-02T06:34:53.735Z,12.60
2018-05-02T06:37:22.629Z,12.90
2018-05-02T06:39:51.546Z,13.10
2018-05-02T06:42:19.657Z,13.10
2018-05-02T06:44:48.167Z,13.20
2018-05-02T06:47:17.478Z,13.40
2018-05-02T06:49:46.366Z,13.50
2018-05-02T06:52:16.461Z,13.50
2018-05-02T06:54:44.679Z,13.50
2018-05-02T06:57:15.994Z,13.40
2018-05-02T06:59:44.149Z,13.40
2018-05-02T07:02:13.121Z,13.40
2018-05-02T07:04:41.259Z,13.40
2018-05-02T07:07:12.202Z,13.50
2018-05-02T07:09:41.127Z,13.60
2018-05-02T07:12:09.237Z,13.60
2018-05-02T07:14:40.109Z,13.80
2018-05-02T07:17:08.230Z,13.90
2018-05-02T07:19:41.194Z,13.90
2018-05-02T07:22:09.326Z,14.20
2018-05-02T07:24:37.471Z,14.40
2018-05-02T07:27:05.596Z,14.40
2018-05-02T07:29:35.585Z,14.70
2018-05-02T07:32:04.473Z,14.70
2018-05-02T07:34:33.378Z,14.60
2018-05-02T07:37:03.234Z,14.60
2018-05-02T07:39:31.738Z,14.60
2018-05-02T07:42:00.938Z,14.50
2018-05-02T07:44:29.854Z,14.30
2018-05-02T07:46:58.742Z,14.30
2018-05-02T07:49:27.635Z,14.60
2018-05-02T07:51:56.511Z,14.80
2018-05-02T07:54:24.647Z,14.80
2018-05-02T07:56:52.752Z,15.20
2018-05-02T07:59:20.899Z,15.50
2018-05-02T08:01:49.006Z,15.60
2018-05-02T08:04:17.138Z,15.90
2018-05-02T08:06:45.992Z,16.20
2018-05-02T08:09:14.140Z,16.40
2018-05-02T08:11:43.642Z,17.20
2018-05-02T08:14:11.774Z,17.10
2018-05-02T08:16:41.107Z,18.40
2018-05-02T08:19:09.253Z,18.40
2018-05-02T08:21:37.360Z,18.70
2018-05-02T08:24:08.130Z,18.70
2018-05-02T08:26:36.243Z,18.60
2018-05-02T08:29:04.377Z,17.50
2018-05-02T08:31:32.494Z,17.50
2018-05-02T08:34:00.629Z,17.90
2018-05-02T08:36:30.202Z,19.20
2018-05-02T08:38:58.371Z,19.20
2018-05-02T08:41:28.290Z,19.40
2018-05-02T08:43:57.944Z,19.40
2018-05-02T08:46:26.041Z,19.80
2018-05-02T08:48:55.725Z,20.10
2018-05-02T08:51:25.776Z,20.00
2018-05-02T08:53:53.922Z,20.00
2018-05-02T08:56:22.033Z,20.00
2018-05-02T08:58:50.158Z,20.00
2018-05-02T09:01:18.268Z,20.00
2018-05-02T09:03:46.404Z,20.00
2018-05-02T09:06:15.322Z,19.90
2018-05-02T09:08:44.316Z,19.60
2018-05-02T09:11:12.422Z,20.00
2018-05-02T09:13:40.531Z,20.20
2018-05-02T09:16:08.663Z,20.50
2018-05-02T09:18:36.766Z,20.40
2018-05-02T09:21:04.891Z,20.30
2018-05-02T09:23:33.368Z,20.20
2018-05-02T09:26:03.429Z,19.30
2018-05-02T09:28:33.108Z,19.20
2018-05-02T09:31:01.235Z,19.10
2018-05-02T09:33:29.333Z,19.00
2018-05-02T09:35:57.465Z,18.80
2018-05-02T09:38:25.579Z,18.90
2018-05-02T09:43:24.221Z,18.60
2018-05-02T09:45:56.071Z,18.60
2018-05-02T09:48:24.192Z,18.90
2018-05-02T09:50:52.674Z,18.90
2018-05-02T09:53:20.777Z,19.00
2018-05-02T09:55:50.417Z,19.20
2018-05-02T09:58:19.703Z,19.20
2018-05-02T10:00:47.786Z,19.10
2018-05-02T10:03:16.679Z,19.20
2018-05-02T10:05:45.677Z,19.20
2018-05-02T10:08:14.564Z,19.60
2018-05-02T10:10:43.271Z,19.60
2018-05-02T10:13:11.397Z,19.20
2018-05-02T10:15:39.530Z,18.70
2018-05-02T10:18:08.441Z,18.30
2018-05-02T10:20:36.583Z,18.20
2018-05-02T10:23:05.060Z,18.70
2018-05-02T10:25:33.195Z,18.80
2018-05-02T10:28:01.303Z,18.50
2018-05-02T10:30:30.279Z,18.20
2018-05-02T10:32:58.381Z,17.90
2018-05-02T10:35:26.514Z,17.50
2018-05-02T10:37:54.625Z,17.30
2018-05-02T10:40:22.826Z,17.30
2018-05-02T10:42:50.951Z,17.20
2018-05-02T10:45:19.853Z,16.80
2018-05-02T10:47:48.722Z,16.80
2018-05-02T10:50:16.845Z,16.80
2018-05-02T10:52:44.957Z,16.90
2018-05-02T10:55:13.082Z,16.90
2018-05-02T10:57:41.185Z,16.80
2018-05-02T11:00:09.321Z,17.00
2018-05-02T11:02:37.430Z,17.00
2018-05-02T11:05:05.606Z,16.80
2018-05-02T11:07:33.715Z,16.70
2018-05-02T11:10:09.041Z,16.70
2018-05-02T11:12:37.145Z,16.90
2018-05-02T11:15:06.653Z,17.00
2018-05-02T11:17:36.530Z,17.10
2018-05-02T11:20:04.658Z,17.10
2018-05-02T11:22:32.766Z,17.20
2018-05-02T11:25:02.014Z,17.30
2018-05-02T11:27:30.127Z,17.40
2018-05-02T11:29:59.014Z,17.40
2018-05-02T11:32:30.795Z,17.40
2018-05-02T11:34:59.683Z,17.50
2018-05-02T11:37:29.414Z,17.70
2018-05-02T11:39:57.550Z,17.70
2018-05-02T11:42:25.661Z,17.60
2018-05-02T11:44:53.795Z,17.70
2018-05-02T11:47:21.905Z,17.50
2018-05-02T11:49:50.040Z,17.30
2018-05-02T11:52:18.173Z,17.40
2018-05-02T11:54:47.070Z,17.20
2018-05-02T11:57:15.192Z,17.20
2018-05-02T11:59:43.318Z,17.00
2018-05-02T12:02:11.428Z,16.90
2018-05-02T12:04:39.593Z,16.90
2018-05-02T12:07:07.717Z,16.90
2018-05-02T12:09:36.597Z,16.80
2018-05-02T12:12:04.726Z,16.80
2018-05-02T12:14:33.529Z,16.80
2018-05-02T12:17:01.666Z,16.90
2018-05-02T12:19:29.789Z,16.90
2018-05-02T12:21:57.921Z,16.90
2018-05-02T12:24:27.161Z,17.20
2018-05-02T12:26:55.304Z,17.20
2018-05-02T12:29:23.419Z,17.20
2018-05-02T12:31:51.551Z,17.20
2018-05-02T12:34:19.668Z,17.20
2018-05-02T12:36:47.876Z,17.20
2018-05-02T12:39:15.985Z,17.20
2018-05-02T12:41:44.110Z,17.30
2018-05-02T12:44:12.985Z,17.20
2018-05-02T12:46:41.160Z,17.10
2018-05-02T12:49:10.013Z,17.20
2018-05-02T12:51:38.147Z,17.20
2018-05-02T12:54:07.019Z,17.40
2018-05-02T12:56:35.923Z,17.20
2018-05-02T12:59:05.207Z,17.10
2018-05-02T13:01:34.105Z,17.20
2018-05-02T13:04:03.030Z,17.20
2018-05-02T13:06:32.417Z,17.10
2018-05-02T13:09:00.530Z,17.10
2018-05-02T13:11:28.665Z,17.30
2018-05-02T13:13:56.776Z,17.30
2018-05-02T13:16:24.910Z,17.30
2018-05-02T13:18:53.026Z,17.30
2018-05-02T13:21:21.926Z,17.20
2018-05-02T13:23:50.056Z,17.10
2018-05-02T13:26:18.177Z,17.40
2018-05-02T13:28:46.276Z,17.50
2018-05-02T13:31:14.408Z,17.40
2018-05-02T13:33:42.516Z,17.20
2018-05-02T13:36:11.157Z,17.20
2018-05-02T13:38:39.278Z,17.30
2018-05-02T13:41:07.416Z,17.30
2018-05-02T13:43:35.528Z,17.40
2018-05-02T13:46:04.397Z,17.50
2018-05-02T13:48:32.514Z,17.50
2018-05-02T13:51:00.667Z,17.30
2018-05-02T13:53:29.537Z,17.40
2018-05-02T13:55:58.739Z,17.40
2018-05-02T13:58:26.854Z,17.40
2018-05-02T14:00:55.094Z,17.30
2018-05-02T14:03:23.895Z,17.20
2018-05-02T14:05:52.030Z,17.20
2018-05-02T14:08:21.933Z,17.30
2018-05-02T14:10:50.055Z,17.30
2018-05-02T14:13:18.168Z,17.30
2018-05-02T14:15:46.294Z,17.40
2018-05-02T14:18:14.875Z,17.50
2018-05-02T14:20:43.008Z,17.50
2018-05-02T14:23:11.116Z,17.30
2018-05-02T14:25:39.245Z,17.20
2018-05-02T14:28:07.763Z,17.20
2018-05-02T14:30:35.897Z,17.10
2018-05-02T14:33:04.008Z,17.00
2018-05-02T14:35:32.142Z,17.10
2018-05-02T14:38:00.249Z,17.20
2018-05-02T14:40:28.392Z,17.30
2018-05-02T14:42:56.966Z,17.30
2018-05-02T14:45:25.163Z,17.50
2018-05-02T14:47:53.233Z,17.60
2018-05-02T14:50:21.337Z,17.60
2018-05-02T14:52:49.474Z,17.30
2018-05-02T14:55:17.583Z,17.40
2018-05-02T14:57:45.706Z,17.50
2018-05-02T15:00:13.849Z,17.60
2018-05-02T15:02:42.744Z,17.70
2018-05-02T15:05:11.630Z,17.70
2018-05-02T15:07:40.531Z,17.60
2018-05-02T15:10:09.407Z,17.60
2018-05-02T15:12:37.540Z,17.60
2018-05-02T15:15:06.130Z,17.60
2018-05-02T15:17:34.261Z,17.60
2018-05-02T15:20:02.375Z,17.60
2018-05-02T15:22:30.532Z,17.60
2018-05-02T15:24:58.637Z,17.40
2018-05-02T15:27:35.939Z,17.30
2018-05-02T15:30:04.039Z,17.30
2018-05-02T15:32:35.831Z,17.30
2018-05-02T15:35:04.019Z,17.20
2018-05-02T15:37:32.156Z,17.20
2018-05-02T15:40:00.805Z,16.90
2018-05-02T15:42:29.830Z,16.80
2018-05-02T15:44:58.710Z,16.90
2018-05-02T15:47:27.579Z,16.90
2018-05-02T15:49:55.685Z,16.90
2018-05-02T15:52:23.830Z,16.90
2018-05-02T15:54:51.937Z,16.70
2018-05-02T15:57:20.066Z,16.70
2018-05-02T15:59:48.168Z,16.70
2018-05-02T16:02:17.069Z,16.80
2018-05-02T16:04:45.178Z,16.80
2018-05-02T16:07:15.164Z,16.70
2018-05-02T16:09:47.084Z,16.70
2018-05-02T16:12:19.538Z,16.70
2018-05-02T16:14:47.681Z,16.80
2018-05-02T16:17:15.806Z,16.70
2018-05-02T16:19:44.664Z,16.60
2018-05-02T16:22:13.620Z,16.70
2018-05-02T16:24:42.492Z,16.80
2018-05-02T16:27:10.629Z,16.70
2018-05-02T16:29:38.728Z,16.70
2018-05-02T16:32:06.863Z,16.40
2018-05-02T16:34:34.978Z,16.20
2018-05-02T16:37:03.622Z,16.10
2018-05-02T16:39:31.750Z,16.10
2018-05-02T16:42:02.485Z,16.20
2018-05-02T16:44:31.370Z,16.30
2018-05-02T16:46:59.499Z,16.30
2018-05-02T16:49:27.643Z,16.40
2018-05-02T16:51:55.754Z,16.40
2018-05-02T16:54:23.852Z,16.20
2018-05-02T16:56:52.818Z,16.10
2018-05-02T16:59:21.786Z,16.10
2018-05-02T17:01:50.431Z,16.00
2018-05-02T17:04:18.590Z,16.00
2018-05-02T17:06:46.679Z,15.90
2018-05-02T17:09:16.585Z,16.00
2018-05-02T17:11:45.215Z,15.90
2018-05-02T17:14:13.322Z,15.90
2018-05-02T17:16:41.461Z,15.90
2018-05-02T17:19:10.751Z,15.90
2018-05-02T17:21:39.630Z,15.90
2018-05-02T17:24:08.521Z,15.90
2018-05-02T17:26:37.810Z,15.80
2018-05-02T17:29:05.972Z,15.80
2018-05-02T17:31:34.876Z,15.70
2018-05-02T17:34:03.138Z,15.70
2018-05-02T17:36:33.037Z,15.60
2018-05-02T17:39:01.169Z,15.60
2018-05-02T17:41:29.273Z,15.60
2018-05-02T17:43:57.409Z,15.50
2018-05-02T17:46:26.358Z,15.40
2018-05-02T17:48:54.924Z,15.40
2018-05-02T17:51:23.045Z,15.40
2018-05-02T17:53:51.175Z,15.30
2018-05-02T17:56:19.287Z,15.20
2018-05-02T17:58:47.413Z,15.20
2018-05-02T18:01:15.529Z,15.20
2018-05-02T18:03:43.662Z,15.00
2018-05-02T18:06:11.756Z,15.00
2018-05-02T18:08:39.885Z,14.90
2018-05-02T18:11:07.990Z,14.90
2018-05-02T18:13:36.158Z,14.80
2018-05-02T18:16:05.383Z,14.60
2018-05-02T18:18:40.145Z,14.50
2018-05-02T18:21:10.148Z,14.50
2018-05-02T18:23:38.290Z,14.50
2018-05-02T18:26:06.407Z,14.40
2018-05-02T18:28:35.303Z,14.40
2018-05-02T18:31:04.170Z,14.40
2018-05-02T18:33:32.299Z,14.30
2018-05-02T18:36:00.401Z,14.20
2018-05-02T18:38:29.794Z,14.20
2018-05-02T18:40:57.951Z,14.10
2018-05-02T18:43:26.070Z,14.10
2018-05-02T18:45:54.200Z,14.00
2018-05-02T18:48:22.330Z,14.00
2018-05-02T18:50:51.216Z,13.80
2018-05-02T18:53:19.430Z,13.80
2018-05-02T18:55:48.401Z,13.80
2018-05-02T18:58:17.338Z,13.70
2018-05-02T19:00:45.469Z,13.70
2018-05-02T19:03:15.571Z,13.50
2018-05-02T19:05:45.096Z,13.50
2018-05-02T19:08:13.952Z,13.00
2018-05-02T19:10:42.084Z,13.00
2018-05-02T19:13:10.189Z,13.00
2018-05-02T19:15:39.576Z,13.00
2018-05-02T19:18:13.882Z,13.10
2018-05-02T19:20:42.549Z,13.10
2018-05-02T19:23:12.545Z,13.20
2018-05-02T19:25:47.518Z,12.90
2018-05-02T19:28:15.857Z,12.90
2018-05-02T19:30:44.038Z,13.00
2018-05-02T19:33:18.734Z,12.90
2018-05-02T19:35:46.886Z,12.90
2018-05-02T19:38:15.741Z,12.90
2018-05-02T19:40:49.562Z,12.90
2018-05-02T19:43:23.457Z,12.80
2018-05-02T19:45:51.617Z,12.80
2018-05-02T19:48:20.285Z,12.80
2018-05-02T19:50:54.057Z,12.80
2018-05-02T19:53:23.434Z,12.70
2018-05-02T19:55:52.438Z,12.70
2018-05-02T19:58:20.557Z,12.70
2018-05-02T20:00:55.580Z,12.70
2018-05-02T20:03:23.676Z,12.80
2018-05-02T20:05:51.802Z,12.70
2018-05-02T20:08:41.245Z,12.70
2018-05-02T20:11:15.010Z,12.70
2018-05-02T20:13:48.938Z,12.70
2018-05-02T20:16:17.065Z,12.70
2018-05-02T20:18:45.169Z,12.60
2018-05-02T20:21:13.305Z,12.50
2018-05-02T20:23:41.435Z,12.50
2018-05-02T20:26:10.333Z,12.50
2018-05-02T20:28:39.201Z,12.50
2018-05-02T20:31:07.338Z,12.50
2018-05-02T20:33:35.461Z,12.60
2018-05-02T20:36:05.541Z,12.60
2018-05-02T20:38:34.221Z,12.60
2018-05-02T20:41:02.386Z,12.70
2018-05-02T20:43:30.505Z,12.50
2018-05-02T20:45:59.493Z,12.50
2018-05-02T20:48:27.600Z,12.40
2018-05-02T20:50:55.743Z,12.50
2018-05-02T20:53:23.849Z,12.50
2018-05-02T20:55:53.661Z,12.50
2018-05-02T20:58:21.782Z,12.50
2018-05-02T21:00:50.243Z,12.50
2018-05-02T21:03:19.410Z,12.50
2018-05-02T21:05:47.913Z,12.60
2018-05-02T21:08:16.018Z,12.60
2018-05-02T21:10:44.147Z,12.50
2018-05-02T21:13:12.266Z,12.50
2018-05-02T21:15:40.393Z,12.40
2018-05-02T21:18:08.513Z,12.30
2018-05-02T21:20:36.646Z,12.00
2018-05-02T21:23:04.759Z,12.10
2018-05-02T21:25:34.266Z,12.20
2018-05-02T21:28:04.022Z,12.30
2018-05-02T21:30:32.161Z,12.30
2018-05-02T21:33:00.260Z,12.30
2018-05-02T21:35:28.395Z,12.30
2018-05-02T21:37:56.521Z,12.30
2018-05-02T21:40:25.876Z,12.30
2018-05-02T21:42:53.980Z,12.20
2018-05-02T21:45:22.540Z,12.20
2018-05-02T21:47:51.841Z,12.10
2018-05-02T21:50:20.654Z,12.10
2018-05-02T21:52:49.545Z,12.10
2018-05-02T21:55:17.677Z,12.10
2018-05-02T21:57:45.801Z,12.20
2018-05-02T22:00:13.937Z,12.30
2018-05-02T22:02:42.052Z,12.30
2018-05-02T22:05:10.173Z,12.20
2018-05-02T22:07:38.280Z,12.10
2018-05-02T22:10:06.421Z,11.80
2018-05-02T22:12:34.533Z,11.80
2018-05-02T22:15:04.139Z,11.90
2018-05-02T22:17:32.828Z,11.90
2018-05-02T22:20:00.952Z,11.90
2018-05-02T22:22:29.070Z,11.90
2018-05-02T22:24:57.978Z,12.00
2018-05-02T22:27:32.558Z,12.00
2018-05-02T22:30:00.693Z,12.00
2018-05-02T22:32:28.804Z,12.00
2018-05-02T22:34:56.930Z,12.00
2018-05-02T22:37:25.057Z,12.00
2018-05-02T22:39:53.153Z,11.80
2018-05-02T22:42:21.296Z,11.80
2018-05-02T22:44:49.425Z,11.90
2018-05-02T22:47:17.553Z,11.80
2018-05-02T22:49:45.656Z,11.80
2018-05-02T22:52:14.939Z,11.80
2018-05-02T22:54:43.810Z,11.70
2018-05-02T22:57:11.945Z,11.70
2018-05-02T22:59:40.054Z,11.70
2018-05-02T23:02:08.193Z,11.70
2018-05-02T23:04:36.311Z,11.70
2018-05-02T23:07:04.456Z,11.60
2018-05-02T23:09:32.575Z,11.60
2018-05-02T23:12:01.497Z,11.50
2018-05-02T23:14:29.623Z,11.50
2018-05-02T23:16:57.772Z,11.50
2018-05-02T23:19:25.892Z,11.40
2018-05-02T23:21:54.038Z,11.40
2018-05-02T23:24:22.155Z,11.40
2018-05-02T23:26:50.308Z,11.40
2018-05-02T23:29:19.221Z,11.00
2018-05-02T23:31:47.375Z,11.00
2018-05-02T23:34:30.422Z,11.00
2018-05-02T23:36:58.565Z,11.20
2018-05-02T23:39:27.457Z,11.30
2018-05-02T23:41:56.376Z,11.30
2018-05-02T23:44:24.497Z,11.30
2018-05-02T23:46:53.501Z,11.30
2018-05-02T23:49:21.633Z,11.30
2018-05-02T23:51:49.789Z,11.30
2018-05-02T23:54:17.908Z,11.20
2018-05-02T23:56:46.080Z,11.20
2018-05-02T23:59:14.194Z,11.20
